Broken Arrow, OK (74012)

1:40 AM CDT on July 02, 2015 (GMT -0500)
APRSWXNET | | Change Station
CLOSE
Current Station
Personal Weather Station
Location: Broken Arrow, OK
Elevation: 725 ft
Nearby Weather Stations

Elev 725 ft 36.04 °N, 95.82 °W | Updated 22 minutes ago

Mostly Cloudy
Mostly Cloudy
82 °F
Feels Like 87 °F
N
1
Wind Variable Wind from SW
Gusts 5.0 mph

Today
High -- | Low -- °F
--% Chance of Precip.
Yesterday
High -- | Low -- °F
Precip. -- in
6:10 AM 8:44 PM
Full, 100% visible
Pressure 29.83 in
Visibility 10.0 miles
Clouds Mostly Cloudy 10000 ft
Heat Index 87 °F
Dew Point 72 °F
Humidity 71%
Rainfall in
Snow Depth Not available.
UV 0 out of 12
Pollen 3.00 out of 12
Air Quality Not available.
Flu Activity Not available.
METAR KRVS 020553Z AUTO 20008KT 10SM BKN100 29/21 A2983 RMK AO2 SLP100 T02890211 10333 20283 403560244 55002

More Conditions Fewer Conditions

Pressure 29.83 in
Visibility 10.0 miles
Clouds Mostly Cloudy 10000 ft
Heat Index 87 °F
Dew Point 72 °F
Humidity 71%
Rainfall in
Snow Depth Not available.
UV 0 out of 12
Pollen 3.00 out of 12
Air Quality Not available.
Flu Activity Not available.
METAR KRVS 020553Z AUTO 20008KT 10SM BKN100 29/21 A2983 RMK AO2 SLP100 T02890211 10333 20283 403560244 55002

More Conditions Fewer Conditions

Nowcast | as of 12:39 am CDT on July 2, 2015

At 12:40 am... National Weather Service radars indicated showers and isolated thunderstorms along a line from Ottawa County in northeast Oklahoma northeastward into southern Missouri. Through 2:30 am... scattered showers and thunderstorms will continue to develop further south... affecting far northeast Oklahoma and northwest Arkansas

×

10-Day Weather Forecast

×

Almanac

Astronomy

Jul. 02, 2015 Rise Set
Actual Time
Civil Twilight
Nautical Twilight
Astronomical Twilight
Moon
Length of Visible Light
Length of Day
Tomorrow will be .
, % of the Moon is Illuminated

Today's Extremes

State Highs State Lows

Community

WunderPhotos

Upload Photos

1,834,422 photos uploaded!

WunderBlogs® & News

Nearby

Air Quality

  Air Quality AQ Index Pollutant
Not available.

Snow Depth

Station Depth Elevation

Earthquake Activity

City Distance Mag. Time & Date
Minimum magnitude displayed is 2.5.

Coastal Water Temperatures

Place Temperature

Stations

Nearby Weather Stations

Station Location Temp. Windchill Dew Point Humidity Wind Precip. Elev Updated Type